Argentia Desgagnes — CFFA — position and weather

sailwx.info

Track history (hours):
 
Tides and Currents Weather Stations Pressure Air Temp Water Temp Dewpoint Dewpoint Depression Visibility Wind Speed Wind Dir Waves Ship Positions

Argentia Desgagnes

Last reported at 2018-Jul-20 02:39 UTC. Time now 2018-Jul-20 21:53 UTC.
Position N 47°10' W 052°39'.

Length 119 m; draft 3.6 m.

Type: Ship. MMSI: 316014370.

Date/timePositionNaut miles runAvg speedWind from/ knotsBaromVisibWave heightAir tempDewpointWater temp
2018-Jul-20 02:39N 47°10' W 052°39'213.6
2018-Jul-20 02:29N 47°12' W 052°38'713.2
2018-Jul-20 01:59N 47°19' W 052°36'713.0
2018-Jul-20 01:27N 47°25' W 052°34'713.2
2018-Jul-20 00:57N 47°32' W 052°32'712.8
2018-Jul-20 00:26N 47°39' W 052°32'613.1
2018-Jul-20 00:00N 47°44' W 052°34'  
2018-Jul-16 23:26N 47°39' W 052°31'1111.2
2018-Jul-16 22:27N 47°28' W 052°30'1012.0
2018-Jul-16 21:37N 47°19' W 052°36'  
Track history (hours):
 
Tides and Currents Weather Stations Pressure Air Temp Water Temp Dewpoint Dewpoint Depression Visibility Wind Speed Wind Dir Waves Ship Positions

Argentia Desgagnes

Last reported at 2018-Jul-20 02:39 UTC. Time now 2018-Jul-20 21:53 UTC.
Position N 47°10' W 052°39'.

Length 119 m; draft 3.6 m.

Type: Ship. MMSI: 316014370.

Date/timePositionNaut miles runAvg speedWind from/ knotsBaromVisibWave heightAir tempDewpointWater temp
2018-Jul-20 02:39N 47°10' W 052°39'213.6
2018-Jul-20 02:29N 47°12' W 052°38'713.2
2018-Jul-20 01:59N 47°19' W 052°36'713.0
2018-Jul-20 01:27N 47°25' W 052°34'713.2
2018-Jul-20 00:57N 47°32' W 052°32'712.8
2018-Jul-20 00:26N 47°39' W 052°32'613.1
2018-Jul-20 00:00N 47°44' W 052°34'  
2018-Jul-16 23:26N 47°39' W 052°31'1111.2
2018-Jul-16 22:27N 47°28' W 052°30'1012.0
2018-Jul-16 21:37N 47°19' W 052°36'  

Dump ship's entire track history